Terminal Aerodrome Forecast
Issued by NWS

Home | Current Version | Previous Version | Text Only | Print | Product List | Glossary On
Versions: 1 2 3 4 5 6 7 8 9 10 11 12 13 14 15 16 17 18 19 20 21 22 23 24
000
FTUS41 KBUF 191127
TAFJHW
TAF
KJHW 191127Z 1912/2012 17017G25KT P6SM BKN130
     FM191500 18014KT 6SM -RA OVC012
     FM191800 19017KT 4SM RA SCT007 OVC012
     FM192300 20014KT 6SM -RA SCT007 OVC015 WS020/23040KT
     FM200300 21016KT P6SM SCT007 OVC035 WS020/22045KT
      AMD NOT SKED=

USA.gov is the U.S. government's official web portal to all federal, state and local government web resources and services.